sensor_id;sensor_type;location;lat;lon;timestamp;pressure;altitude;pressure_sealevel;temperature;humidity
37648;BME280;23490;53.656;10.076;2022-10-23T00:01:27;98967.81;;;-145.95;100.00
37648;BME280;23490;53.656;10.076;2022-10-23T00:04:05;98971.94;;;-145.95;100.00
37648;BME280;23490;53.656;10.076;2022-10-23T00:06:32;98959.56;;;-145.95;100.00
37648;BME280;23490;53.656;10.076;2022-10-23T00:08:58;98963.69;;;-145.95;100.00
37648;BME280;23490;53.656;10.076;2022-10-23T00:11:26;99002.94;;;-145.95;100.00
37648;BME280;23490;53.656;10.076;2022-10-23T00:13:54;98963.69;;;-145.95;100.00
37648;BME280;23490;53.656;10.076;2022-10-23T00:16:20;98986.41;;;-145.95;100.00
37648;BME280;23490;53.656;10.076;2022-10-23T00:18:46;98988.47;;;-145.95;100.00
37648;BME280;23490;53.656;10.076;2022-10-23T00:21:13;98988.47;;;-145.95;100.00
37648;BME280;23490;53.656;10.076;2022-10-23T00:23:39;98967.81;;;-145.95;100.00
37648;BME280;23490;53.656;10.076;2022-10-23T00:26:06;99015.31;;;-145.95;100.00
37648;BME280;23490;53.656;10.076;2022-10-23T00:28:32;98996.72;;;-145.95;100.00
37648;BME280;23490;53.656;10.076;2022-10-23T00:31:01;99023.56;;;-145.95;100.00
37648;BME280;23490;53.656;10.076;2022-10-23T00:33:27;99017.38;;;-145.95;100.00
37648;BME280;23490;53.656;10.076;2022-10-23T00:35:52;99046.28;;;-145.95;100.00
37648;BME280;23490;53.656;10.076;2022-10-23T00:38:17;99021.50;;;-145.95;100.00
37648;BME280;23490;53.656;10.076;2022-10-23T00:40:43;99013.25;;;-145.95;100.00
37648;BME280;23490;53.656;10.076;2022-10-23T00:43:17;99013.25;;;-145.95;100.00
37648;BME280;23490;53.656;10.076;2022-10-23T00:45:42;99021.50;;;-145.95;100.00
37648;BME280;23490;53.656;10.076;2022-10-23T00:48:07;99009.13;;;-145.95;100.00
37648;BME280;23490;53.656;10.076;2022-10-23T00:50:34;99038.03;;;-145.95;100.00
37648;BME280;23490;53.656;10.076;2022-10-23T00:53:01;99025.63;;;-145.95;100.00
37648;BME280;23490;53.656;10.076;2022-10-23T00:55:28;99033.91;;;-145.95;100.00
37648;BME280;23490;53.656;10.076;2022-10-23T00:57:54;99040.09;;;-145.95;100.00
37648;BME280;23490;53.656;10.076;2022-10-23T01:00:23;99062.81;;;-145.95;100.00
37648;BME280;23490;53.656;10.076;2022-10-23T01:02:49;99017.38;;;-145.95;100.00
37648;BME280;23490;53.656;10.076;2022-10-23T01:05:15;99048.34;;;-145.95;100.00
37648;BME280;23490;53.656;10.076;2022-10-23T01:07:50;99052.47;;;-145.95;100.00
37648;BME280;23490;53.656;10.076;2022-10-23T01:10:33;99062.81;;;-145.95;100.00
37648;BME280;23490;53.656;10.076;2022-10-23T01:13:05;99108.25;;;-145.95;100.00
37648;BME280;23490;53.656;10.076;2022-10-23T01:15:49;99062.81;;;-145.95;100.00
37648;BME280;23490;53.656;10.076;2022-10-23T01:18:38;99062.81;;;-145.95;100.00
37648;BME280;23490;53.656;10.076;2022-10-23T01:21:27;99056.63;;;-145.95;100.00
37648;BME280;23490;53.656;10.076;2022-10-23T01:24:20;99087.59;;;-145.95;100.00
37648;BME280;23490;53.656;10.076;2022-10-23T01:35:04;99069.00;;;-145.95;100.00
37648;BME280;23490;53.656;10.076;2022-10-23T01:37:43;99027.69;;;-145.95;100.00
37648;BME280;23490;53.656;10.076;2022-10-23T01:40:19;99071.06;;;-145.95;100.00
37648;BME280;23490;53.656;10.076;2022-10-23T01:42:51;99075.19;;;-145.95;100.00
37648;BME280;23490;53.656;10.076;2022-10-23T01:45:27;99040.09;;;-145.95;100.00
37648;BME280;23490;53.656;10.076;2022-10-23T01:47:55;99023.56;;;-145.95;100.00
37648;BME280;23490;53.656;10.076;2022-10-23T01:50:22;99083.47;;;-145.95;100.00
37648;BME280;23490;53.656;10.076;2022-10-23T01:52:49;99058.69;;;-145.95;100.00
37648;BME280;23490;53.656;10.076;2022-10-23T01:55:14;99077.25;;;-145.95;100.00
37648;BME280;23490;53.656;10.076;2022-10-23T01:57:43;99091.72;;;-145.95;100.00
37648;BME280;23490;53.656;10.076;2022-10-23T02:00:12;99081.41;;;-145.95;100.00
37648;BME280;23490;53.656;10.076;2022-10-23T02:02:40;99066.94;;;-145.95;100.00
37648;BME280;23490;53.656;10.076;2022-10-23T02:05:14;99064.88;;;-145.95;100.00
37648;BME280;23490;53.656;10.076;2022-10-23T02:07:41;99104.09;;;-145.95;100.00
37648;BME280;23490;53.656;10.076;2022-10-23T02:10:08;99071.06;;;-145.95;100.00
37648;BME280;23490;53.656;10.076;2022-10-23T02:13:04;99083.47;;;-145.95;100.00
37648;BME280;23490;53.656;10.076;2022-10-23T02:15:37;99120.63;;;-145.95;100.00
37648;BME280;23490;53.656;10.076;2022-10-23T02:18:26;99104.09;;;-145.95;100.00
37648;BME280;23490;53.656;10.076;2022-10-23T02:20:59;99062.81;;;-145.95;100.00
37648;BME280;23490;53.656;10.076;2022-10-23T02:23:34;99083.47;;;-145.95;100.00
37648;BME280;23490;53.656;10.076;2022-10-23T02:26:05;99149.53;;;-145.95;100.00
37648;BME280;23490;53.656;10.076;2022-10-23T02:28:42;99095.84;;;-145.95;100.00
37648;BME280;23490;53.656;10.076;2022-10-23T02:31:13;99104.09;;;-145.95;100.00
37648;BME280;23490;53.656;10.076;2022-10-23T02:33:43;99073.13;;;-145.95;100.00
37648;BME280;23490;53.656;10.076;2022-10-23T02:36:08;99089.66;;;-145.95;100.00
37648;BME280;23490;53.656;10.076;2022-10-23T02:38:39;99097.91;;;-145.95;100.00
37648;BME280;23490;53.656;10.076;2022-10-23T02:49:24;99095.84;;;-145.95;100.00
37648;BME280;23490;53.656;10.076;2022-10-23T02:52:01;99116.50;;;-145.95;100.00
37648;BME280;23490;53.656;10.076;2022-10-23T02:54:42;99095.84;;;-145.95;100.00
37648;BME280;23490;53.656;10.076;2022-10-23T02:57:23;99083.47;;;-145.95;100.00
37648;BME280;23490;53.656;10.076;2022-10-23T03:00:09;99099.97;;;-145.95;100.00
37648;BME280;23490;53.656;10.076;2022-10-23T03:05:26;99091.72;;;-145.95;100.00
37648;BME280;23490;53.656;10.076;2022-10-23T03:07:53;99058.69;;;-145.95;100.00
37648;BME280;23490;53.656;10.076;2022-10-23T03:10:18;99087.59;;;-145.95;100.00
37648;BME280;23490;53.656;10.076;2022-10-23T03:12:44;99083.47;;;-145.95;100.00
37648;BME280;23490;53.656;10.076;2022-10-23T03:15:11;99083.47;;;-145.95;100.00
37648;BME280;23490;53.656;10.076;2022-10-23T03:17:37;99048.34;;;-145.95;100.00
37648;BME280;23490;53.656;10.076;2022-10-23T03:20:04;99050.41;;;-145.95;100.00
37648;BME280;23490;53.656;10.076;2022-10-23T03:22:29;99054.56;;;-145.95;100.00
37648;BME280;23490;53.656;10.076;2022-10-23T03:24:55;99060.75;;;-145.95;100.00
37648;BME280;23490;53.656;10.076;2022-10-23T03:27:20;99054.56;;;-145.95;100.00
37648;BME280;23490;53.656;10.076;2022-10-23T03:29:45;99079.34;;;-145.95;100.00
37648;BME280;23490;53.656;10.076;2022-10-23T03:32:11;99017.38;;;-145.95;100.00
37648;BME280;23490;53.656;10.076;2022-10-23T03:34:36;99071.06;;;-145.95;100.00
37648;BME280;23490;53.656;10.076;2022-10-23T03:37:01;99054.56;;;-145.95;100.00
37648;BME280;23490;53.656;10.076;2022-10-23T03:39:27;99052.47;;;-145.95;100.00
37648;BME280;23490;53.656;10.076;2022-10-23T03:41:52;99081.41;;;-145.95;100.00
37648;BME280;23490;53.656;10.076;2022-10-23T03:44:17;99071.06;;;-145.95;100.00
37648;BME280;23490;53.656;10.076;2022-10-23T03:46:43;99083.47;;;-145.95;100.00
37648;BME280;23490;53.656;10.076;2022-10-23T03:49:08;99062.81;;;-145.95;100.00
37648;BME280;23490;53.656;10.076;2022-10-23T03:51:33;99079.34;;;-145.95;100.00
37648;BME280;23490;53.656;10.076;2022-10-23T03:53:59;99071.06;;;-145.95;100.00
37648;BME280;23490;53.656;10.076;2022-10-23T03:56:24;99050.41;;;-145.95;100.00
37648;BME280;23490;53.656;10.076;2022-10-23T03:58:50;99085.53;;;-145.95;100.00
37648;BME280;23490;53.656;10.076;2022-10-23T04:01:15;99062.81;;;-145.95;100.00
37648;BME280;23490;53.656;10.076;2022-10-23T04:03:40;99058.69;;;-145.95;100.00
37648;BME280;23490;53.656;10.076;2022-10-23T04:06:06;99075.19;;;-145.95;100.00
37648;BME280;23490;53.656;10.076;2022-10-23T04:08:31;99083.47;;;-145.95;100.00
37648;BME280;23490;53.656;10.076;2022-10-23T04:10:57;99108.25;;;-145.95;100.00
37648;BME280;23490;53.656;10.076;2022-10-23T04:13:22;99027.69;;;-145.95;100.00
37648;BME280;23490;53.656;10.076;2022-10-23T04:15:51;99044.22;;;-145.95;100.00
37648;BME280;23490;53.656;10.076;2022-10-23T04:18:17;99038.03;;;-145.95;100.00
37648;BME280;23490;53.656;10.076;2022-10-23T04:20:43;99058.69;;;-145.95;100.00
37648;BME280;23490;53.656;10.076;2022-10-23T04:23:08;99029.78;;;-145.95;100.00
37648;BME280;23490;53.656;10.076;2022-10-23T04:25:34;99046.28;;;-145.95;100.00
37648;BME280;23490;53.656;10.076;2022-10-23T04:27:59;99066.94;;;-145.95;100.00
37648;BME280;23490;53.656;10.076;2022-10-23T04:30:24;99046.28;;;-145.95;100.00
37648;BME280;23490;53.656;10.076;2022-10-23T04:32:50;99064.88;;;-145.95;100.00
37648;BME280;23490;53.656;10.076;2022-10-23T04:35:16;99062.81;;;-145.95;100.00
37648;BME280;23490;53.656;10.076;2022-10-23T04:37:42;99071.06;;;-145.95;100.00
37648;BME280;23490;53.656;10.076;2022-10-23T04:40:07;99077.25;;;-145.95;100.00
37648;BME280;23490;53.656;10.076;2022-10-23T04:42:33;99079.34;;;-145.95;100.00
37648;BME280;23490;53.656;10.076;2022-10-23T04:44:58;99087.59;;;-145.95;100.00
37648;BME280;23490;53.656;10.076;2022-10-23T04:47:24;99108.25;;;-145.95;100.00
37648;BME280;23490;53.656;10.076;2022-10-23T04:49:49;99106.16;;;-145.95;100.00
37648;BME280;23490;53.656;10.076;2022-10-23T04:52:14;99095.84;;;-145.95;100.00
37648;BME280;23490;53.656;10.076;2022-10-23T04:54:40;99116.50;;;-145.95;100.00
37648;BME280;23490;53.656;10.076;2022-10-23T04:57:05;99118.56;;;-145.95;100.00
37648;BME280;23490;53.656;10.076;2022-10-23T04:59:30;99159.88;;;-145.95;100.00
37648;BME280;23490;53.656;10.076;2022-10-23T05:01:56;99137.16;;;-145.95;100.00
37648;BME280;23490;53.656;10.076;2022-10-23T05:04:21;99143.34;;;-145.95;100.00
37648;BME280;23490;53.656;10.076;2022-10-23T05:06:46;99157.81;;;-145.95;100.00
37648;BME280;23490;53.656;10.076;2022-10-23T05:09:12;99145.41;;;-145.95;100.00
37648;BME280;23490;53.656;10.076;2022-10-23T05:11:37;99124.75;;;-145.95;100.00
37648;BME280;23490;53.656;10.076;2022-10-23T05:14:02;99168.13;;;-145.95;100.00
37648;BME280;23490;53.656;10.076;2022-10-23T05:16:45;99141.28;;;-145.95;100.00
37648;BME280;23490;53.656;10.076;2022-10-23T05:19:14;99161.94;;;-145.95;100.00
37648;BME280;23490;53.656;10.076;2022-10-23T05:21:43;99186.72;;;-145.95;100.00
37648;BME280;23490;53.656;10.076;2022-10-23T05:24:09;99161.94;;;-145.95;100.00
37648;BME280;23490;53.656;10.076;2022-10-23T05:26:36;99135.09;;;-145.95;100.00
37648;BME280;23490;53.656;10.076;2022-10-23T05:29:01;99182.59;;;-145.95;100.00
37648;BME280;23490;53.656;10.076;2022-10-23T05:31:26;99207.38;;;-145.95;100.00
37648;BME280;23490;53.656;10.076;2022-10-23T05:33:53;99180.50;;;-145.95;100.00
37648;BME280;23490;53.656;10.076;2022-10-23T05:36:20;99161.94;;;-145.95;100.00
37648;BME280;23490;53.656;10.076;2022-10-23T05:38:46;99186.72;;;-145.95;100.00
37648;BME280;23490;53.656;10.076;2022-10-23T05:41:12;99194.97;;;-145.95;100.00
37648;BME280;23490;53.656;10.076;2022-10-23T05:43:37;99213.56;;;-145.95;100.00
37648;BME280;23490;53.656;10.076;2022-10-23T05:46:04;99153.66;;;-145.95;100.00
37648;BME280;23490;53.656;10.076;2022-10-23T05:48:31;99170.19;;;-145.95;100.00
37648;BME280;23490;53.656;10.076;2022-10-23T05:51:05;99186.72;;;-145.95;100.00
37648;BME280;23490;53.656;10.076;2022-10-23T05:53:30;99223.88;;;-145.95;100.00
37648;BME280;23490;53.656;10.076;2022-10-23T05:55:55;99209.44;;;-145.95;100.00
37648;BME280;23490;53.656;10.076;2022-10-23T05:58:21;99147.47;;;-145.95;100.00
37648;BME280;23490;53.656;10.076;2022-10-23T06:00:47;99133.03;;;-145.95;100.00
37648;BME280;23490;53.656;10.076;2022-10-23T06:03:12;99201.16;;;-145.95;100.00
37648;BME280;23490;53.656;10.076;2022-10-23T06:05:38;99176.38;;;-145.95;100.00
37648;BME280;23490;53.656;10.076;2022-10-23T06:08:03;99219.75;;;-145.95;100.00
37648;BME280;23490;53.656;10.076;2022-10-23T06:10:30;99234.22;;;-145.95;100.00
37648;BME280;23490;53.656;10.076;2022-10-23T06:12:56;99203.22;;;-145.95;100.00
37648;BME280;23490;53.656;10.076;2022-10-23T06:15:21;99211.50;;;-145.95;100.00
37648;BME280;23490;53.656;10.076;2022-10-23T06:17:46;99244.53;;;-145.95;100.00
37648;BME280;23490;53.656;10.076;2022-10-23T06:20:12;99205.28;;;-145.95;100.00
37648;BME280;23490;53.656;10.076;2022-10-23T06:22:37;99219.75;;;-145.95;100.00
37648;BME280;23490;53.656;10.076;2022-10-23T06:25:02;99194.97;;;-145.95;100.00
37648;BME280;23490;53.656;10.076;2022-10-23T06:27:28;99194.97;;;-145.95;100.00
37648;BME280;23490;53.656;10.076;2022-10-23T06:29:53;99151.59;;;-145.95;100.00
37648;BME280;23490;53.656;10.076;2022-10-23T06:32:18;99133.03;;;-145.95;100.00
37648;BME280;23490;53.656;10.076;2022-10-23T06:34:44;99164.00;;;-145.95;100.00
37648;BME280;23490;53.656;10.076;2022-10-23T06:37:09;99135.09;;;-145.95;100.00
37648;BME280;23490;53.656;10.076;2022-10-23T06:39:34;99149.53;;;-145.95;100.00
37648;BME280;23490;53.656;10.076;2022-10-23T06:42:01;99166.06;;;-145.95;100.00
37648;BME280;23490;53.656;10.076;2022-10-23T06:44:26;99141.28;;;-145.95;100.00
37648;BME280;23490;53.656;10.076;2022-10-23T06:46:51;99170.19;;;-145.95;100.00
37648;BME280;23490;53.656;10.076;2022-10-23T06:49:17;99161.94;;;-145.95;100.00
37648;BME280;23490;53.656;10.076;2022-10-23T06:51:42;99153.66;;;-145.95;100.00
37648;BME280;23490;53.656;10.076;2022-10-23T06:54:09;99097.91;;;-145.95;100.00
37648;BME280;23490;53.656;10.076;2022-10-23T06:56:35;99137.16;;;-145.95;100.00
37648;BME280;23490;53.656;10.076;2022-10-23T06:59:01;99149.53;;;-145.95;100.00
37648;BME280;23490;53.656;10.076;2022-10-23T07:01:26;99159.88;;;-145.95;100.00
37648;BME280;23490;53.656;10.076;2022-10-23T07:03:52;99122.69;;;-145.95;100.00
37648;BME280;23490;53.656;10.076;2022-10-23T07:06:17;99153.66;;;-145.95;100.00
37648;BME280;23490;53.656;10.076;2022-10-23T07:08:43;99120.63;;;-145.95;100.00
37648;BME280;23490;53.656;10.076;2022-10-23T07:11:09;99128.88;;;-145.95;100.00
37648;BME280;23490;53.656;10.076;2022-10-23T07:13:36;99141.28;;;-145.95;100.00
37648;BME280;23490;53.656;10.076;2022-10-23T07:16:13;99112.38;;;-145.95;100.00
37648;BME280;23490;53.656;10.076;2022-10-23T07:18:40;99149.53;;;-145.95;100.00
37648;BME280;23490;53.656;10.076;2022-10-23T07:21:05;99108.25;;;-145.95;100.00
37648;BME280;23490;53.656;10.076;2022-10-23T07:23:30;99116.50;;;-145.95;100.00
37648;BME280;23490;53.656;10.076;2022-10-23T07:26:09;99104.09;;;-145.95;100.00
37648;BME280;23490;53.656;10.076;2022-10-23T07:28:34;99075.19;;;-145.95;100.00
37648;BME280;23490;53.656;10.076;2022-10-23T07:31:00;99104.09;;;-145.95;100.00
37648;BME280;23490;53.656;10.076;2022-10-23T07:33:25;99087.59;;;-145.95;100.00
37648;BME280;23490;53.656;10.076;2022-10-23T07:35:51;99038.03;;;-145.95;100.00
37648;BME280;23490;53.656;10.076;2022-10-23T07:38:16;99079.34;;;-145.95;100.00
37648;BME280;23490;53.656;10.076;2022-10-23T07:40:42;99079.34;;;-145.95;100.00
37648;BME280;23490;53.656;10.076;2022-10-23T07:43:07;99050.41;;;-145.95;100.00
37648;BME280;23490;53.656;10.076;2022-10-23T07:45:33;99054.56;;;-145.95;100.00
37648;BME280;23490;53.656;10.076;2022-10-23T07:47:58;99050.41;;;-145.95;100.00
37648;BME280;23490;53.656;10.076;2022-10-23T07:50:23;98996.72;;;-145.95;100.00
37648;BME280;23490;53.656;10.076;2022-10-23T07:52:49;99042.16;;;-145.95;100.00
37648;BME280;23490;53.656;10.076;2022-10-23T07:55:14;99017.38;;;-145.95;100.00
37648;BME280;23490;53.656;10.076;2022-10-23T07:57:39;99056.63;;;-145.95;100.00
37648;BME280;23490;53.656;10.076;2022-10-23T08:00:06;99000.84;;;-145.95;100.00
37648;BME280;23490;53.656;10.076;2022-10-23T08:02:31;98971.94;;;-145.95;100.00
37648;BME280;23490;53.656;10.076;2022-10-23T08:04:57;99015.31;;;-145.95;100.00
37648;BME280;23490;53.656;10.076;2022-10-23T08:07:22;98965.75;;;-145.95;100.00
37648;BME280;23490;53.656;10.076;2022-10-23T08:09:47;98959.56;;;-145.95;100.00
37648;BME280;23490;53.656;10.076;2022-10-23T08:12:13;98912.06;;;-145.95;100.00
37648;BME280;23490;53.656;10.076;2022-10-23T08:14:38;98934.78;;;-145.95;100.00
37648;BME280;23490;53.656;10.076;2022-10-23T08:17:04;98907.94;;;-145.95;100.00
37648;BME280;23490;53.656;10.076;2022-10-23T08:19:29;98918.25;;;-145.95;100.00
37648;BME280;23490;53.656;10.076;2022-10-23T08:21:55;98872.84;;;-145.95;100.00
37648;BME280;23490;53.656;10.076;2022-10-23T08:24:22;98837.72;;;-145.95;100.00
37648;BME280;23490;53.656;10.076;2022-10-23T08:26:48;98831.53;;;-145.95;100.00
37648;BME280;23490;53.656;10.076;2022-10-23T08:29:14;98819.16;;;-145.95;100.00
37648;BME280;23490;53.656;10.076;2022-10-23T08:31:40;98823.28;;;-145.95;100.00
37648;BME280;23490;53.656;10.076;2022-10-23T08:34:05;98748.94;;;-145.95;100.00
37648;BME280;23490;53.656;10.076;2022-10-23T08:36:31;98751.00;;;-145.95;100.00
37648;BME280;23490;53.656;10.076;2022-10-23T08:38:57;98757.19;;;-145.95;100.00
37648;BME280;23490;53.656;10.076;2022-10-23T08:41:24;98738.63;;;-145.95;100.00
37648;BME280;23490;53.656;10.076;2022-10-23T08:46:33;98767.53;;;-145.95;100.00
37648;BME280;23490;53.656;10.076;2022-10-23T08:49:14;98711.78;;;-145.95;100.00
37648;BME280;23490;53.656;10.076;2022-10-23T08:51:44;98713.84;;;-145.95;100.00
37648;BME280;23490;53.656;10.076;2022-10-23T08:54:13;98707.66;;;-145.95;100.00
37648;BME280;23490;53.656;10.076;2022-10-23T08:56:42;98631.25;;;-145.95;100.00
37648;BME280;23490;53.656;10.076;2022-10-23T08:59:32;98649.84;;;-145.95;100.00
37648;BME280;23490;53.656;10.076;2022-10-23T09:04:31;98612.66;;;-145.95;100.00
37648;BME280;23490;53.656;10.076;2022-10-23T09:07:15;98625.06;;;-145.95;100.00
37648;BME280;23490;53.656;10.076;2022-10-23T09:09:54;98666.34;;;-145.95;100.00
37648;BME280;23490;53.656;10.076;2022-10-23T09:12:24;98633.31;;;-145.95;100.00
37648;BME280;23490;53.656;10.076;2022-10-23T09:17:40;98616.78;;;-145.95;100.00
37648;BME280;23490;53.656;10.076;2022-10-23T09:20:15;98608.53;;;-145.95;100.00
37648;BME280;23490;53.656;10.076;2022-10-23T09:22:41;98608.53;;;-145.95;100.00
37648;BME280;23490;53.656;10.076;2022-10-23T09:25:09;98592.03;;;-145.95;100.00
37648;BME280;23490;53.656;10.076;2022-10-23T09:27:35;98563.13;;;-145.95;100.00
37648;BME280;23490;53.656;10.076;2022-10-23T09:30:01;98563.13;;;-145.95;100.00
37648;BME280;23490;53.656;10.076;2022-10-23T09:32:34;98558.97;;;-145.95;100.00
37648;BME280;23490;53.656;10.076;2022-10-23T09:35:01;98534.22;;;-145.95;100.00
37648;BME280;23490;53.656;10.076;2022-10-23T09:37:31;98536.28;;;-145.95;100.00
37648;BME280;23490;53.656;10.076;2022-10-23T09:43:00;98525.94;;;-145.95;98.97
37648;BME280;23490;53.656;10.076;2022-10-23T09:45:32;98583.75;;;-145.95;99.21
37648;BME280;23490;53.656;10.076;2022-10-23T09:48:14;98468.13;;;-145.95;99.85
37648;BME280;23490;53.656;10.076;2022-10-23T09:50:53;98540.41;;;-145.95;99.53
37648;BME280;23490;53.656;10.076;2022-10-23T09:53:32;98513.56;;;-145.95;96.46
37648;BME280;23490;53.656;10.076;2022-10-23T09:59:18;98501.19;;;-145.95;97.08
37648;BME280;23490;53.656;10.076;2022-10-23T10:01:57;98451.63;;;-145.95;96.82
37648;BME280;23490;53.656;10.076;2022-10-23T10:04:34;98410.34;;;-145.95;96.09
37648;BME280;23490;53.656;10.076;2022-10-23T10:07:01;98447.50;;;-145.95;94.90
37648;BME280;23490;53.656;10.076;2022-10-23T10:09:27;98426.84;;;-145.95;96.22
37648;BME280;23490;53.656;10.076;2022-10-23T10:14:46;98410.34;;;-145.95;95.02
37648;BME280;23490;53.656;10.076;2022-10-23T10:26:04;98377.28;;;-145.95;92.82
37648;BME280;23490;53.656;10.076;2022-10-23T10:28:52;98397.94;;;-145.95;92.63
37648;BME280;23490;53.656;10.076;2022-10-23T10:39:45;98402.06;;;-145.95;91.73
37648;BME280;23490;53.656;10.076;2022-10-23T10:45:16;98375.22;;;-145.95;91.20
37648;BME280;23490;53.656;10.076;2022-10-23T10:50:22;98422.72;;;-145.95;92.55
37648;BME280;23490;53.656;10.076;2022-10-23T10:55:42;98302.97;;;-145.95;90.02
37648;BME280;23490;53.656;10.076;2022-10-23T10:58:19;98350.47;;;-145.95;89.71
37648;BME280;23490;53.656;10.076;2022-10-23T11:00:53;98329.81;;;-145.95;88.83
37648;BME280;23490;53.656;10.076;2022-10-23T11:03:35;98265.81;;;-145.95;87.96
37648;BME280;23490;53.656;10.076;2022-10-23T11:06:03;98294.72;;;-145.95;86.88
37648;BME280;23490;53.656;10.076;2022-10-23T11:08:35;98249.28;;;-145.95;86.96
37648;BME280;23490;53.656;10.076;2022-10-23T11:11:32;98257.56;;;-145.95;84.98
37648;BME280;23490;53.656;10.076;2022-10-23T11:13:59;98224.53;;;-145.95;86.44
37648;BME280;23490;53.656;10.076;2022-10-23T11:16:31;98253.44;;;-145.95;85.92
37648;BME280;23490;53.656;10.076;2022-10-23T11:19:19;98220.38;;;-145.95;85.85
37648;BME280;23490;53.656;10.076;2022-10-23T11:21:56;98232.78;;;-145.95;85.56
37648;BME280;23490;53.656;10.076;2022-10-23T11:33:10;98236.91;;;-145.95;85.64
37648;BME280;23490;53.656;10.076;2022-10-23T11:35:56;98104.78;;;-145.95;82.33
37648;BME280;23490;53.656;10.076;2022-10-23T11:38:34;98146.06;;;-145.95;82.91
37648;BME280;23490;53.656;10.076;2022-10-23T11:41:06;98179.09;;;-145.95;84.14
37648;BME280;23490;53.656;10.076;2022-10-23T11:43:50;98228.66;;;-145.95;82.50
37648;BME280;23490;53.656;10.076;2022-10-23T11:48:48;98150.19;;;-145.95;81.84
37648;BME280;23490;53.656;10.076;2022-10-23T11:51:32;98119.22;;;-145.95;81.00
37648;BME280;23490;53.656;10.076;2022-10-23T11:59:49;98086.19;;;-145.95;81.21
37648;BME280;23490;53.656;10.076;2022-10-23T12:02:33;98094.47;;;-145.95;79.92
37648;BME280;23490;53.656;10.076;2022-10-23T12:05:54;98084.13;;;-145.95;80.82
37648;BME280;23490;53.656;10.076;2022-10-23T12:07:57;98080.00;;;-145.95;78.32
37648;BME280;23490;53.656;10.076;2022-10-23T12:10:33;98075.88;;;-145.95;77.56
37648;BME280;23490;53.656;10.076;2022-10-23T12:13:04;98024.28;;;-145.95;77.34
37648;BME280;23490;53.656;10.076;2022-10-23T12:15:31;97972.66;;;-145.95;76.04
37648;BME280;23490;53.656;10.076;2022-10-23T12:18:14;97943.75;;;-145.95;76.44
37648;BME280;23490;53.656;10.076;2022-10-23T12:23:29;97947.88;;;-145.95;75.36
37648;BME280;23490;53.656;10.076;2022-10-23T12:26:16;97894.22;;;-145.95;73.63
37648;BME280;23490;53.656;10.076;2022-10-23T12:28:54;97881.84;;;-145.95;74.11
37648;BME280;23490;53.656;10.076;2022-10-23T12:31:43;97902.47;;;-145.95;72.45
37648;BME280;23490;53.656;10.076;2022-10-23T12:39:52;97943.75;;;-145.95;75.41
37648;BME280;23490;53.656;10.076;2022-10-23T12:42:24;97939.63;;;-145.95;74.54
37648;BME280;23490;53.656;10.076;2022-10-23T12:44:58;97952.00;;;-145.95;75.48
37648;BME280;23490;53.656;10.076;2022-10-23T12:47:24;97985.03;;;-145.95;75.78
37648;BME280;23490;53.656;10.076;2022-10-23T12:49:49;98009.81;;;-145.95;77.17
37648;BME280;23490;53.656;10.076;2022-10-23T12:52:17;98009.81;;;-145.95;76.28
37648;BME280;23490;53.656;10.076;2022-10-23T12:54:43;98034.59;;;-145.95;76.66
37648;BME280;23490;53.656;10.076;2022-10-23T12:57:28;98077.94;;;-145.95;78.60
37648;BME280;23490;53.656;10.076;2022-10-23T12:59:56;98080.00;;;-145.95;78.62
37648;BME280;23490;53.656;10.076;2022-10-23T13:02:25;98042.84;;;-145.95;78.77
37648;BME280;23490;53.656;10.076;2022-10-23T13:04:53;98075.88;;;-145.95;79.86
37648;BME280;23490;53.656;10.076;2022-10-23T13:07:22;98096.53;;;-145.95;79.80
37648;BME280;23490;53.656;10.076;2022-10-23T13:09:49;98129.56;;;-145.95;80.35
37648;BME280;23490;53.656;10.076;2022-10-23T13:12:24;98117.16;;;-145.95;80.86
37648;BME280;23490;53.656;10.076;2022-10-23T13:20:08;98139.88;;;-145.95;82.99
37648;BME280;23490;53.656;10.076;2022-10-23T13:22:33;98141.94;;;-145.95;82.83
37648;BME280;23490;53.656;10.076;2022-10-23T13:24:59;98203.88;;;-145.95;83.79
37648;BME280;23490;53.656;10.076;2022-10-23T13:27:31;98183.22;;;-145.95;84.24
37648;BME280;23490;53.656;10.076;2022-10-23T13:29:57;98199.75;;;-145.95;84.84
37648;BME280;23490;53.656;10.076;2022-10-23T13:32:24;98185.28;;;-145.95;85.38
37648;BME280;23490;53.656;10.076;2022-10-23T13:34:52;98195.63;;;-145.95;84.42
37648;BME280;23490;53.656;10.076;2022-10-23T13:37:25;98220.38;;;-145.95;84.95
37648;BME280;23490;53.656;10.076;2022-10-23T13:40:05;98238.97;;;-145.95;84.98
37648;BME280;23490;53.656;10.076;2022-10-23T13:42:34;98247.22;;;-145.95;86.11
37648;BME280;23490;53.656;10.076;2022-10-23T13:44:59;98220.38;;;-145.95;86.33
37648;BME280;23490;53.656;10.076;2022-10-23T13:47:24;98208.00;;;-145.95;85.89
37648;BME280;23490;53.656;10.076;2022-10-23T13:49:50;98241.03;;;-145.95;86.08
37648;BME280;23490;53.656;10.076;2022-10-23T13:52:18;98241.03;;;-145.95;86.72
37648;BME280;23490;53.656;10.076;2022-10-23T13:54:44;98290.59;;;-145.95;87.05
37648;BME280;23490;53.656;10.076;2022-10-23T13:57:14;98236.91;;;-145.95;87.28
37648;BME280;23490;53.656;10.076;2022-10-23T13:59:39;98263.75;;;-145.95;87.53
37648;BME280;23490;53.656;10.076;2022-10-23T14:04:43;98236.91;;;-145.95;89.96
37648;BME280;23490;53.656;10.076;2022-10-23T14:07:08;98236.91;;;-145.95;87.61
37648;BME280;23490;53.656;10.076;2022-10-23T14:09:33;98208.00;;;-145.95;87.66